createdAt,value
2022-09-07T00:01:07.606Z,101497.75
2022-09-07T00:03:35.853Z,101501.47
2022-09-07T00:06:09.804Z,101496.94
2022-09-07T00:08:40.401Z,101507.78
2022-09-07T00:11:13.699Z,101507.00
2022-09-07T00:13:43.018Z,101507.78
2022-09-07T00:16:13.792Z,101509.53
2022-09-07T00:18:45.778Z,101511.78
2022-09-07T00:21:15.982Z,101509.22
2022-09-07T00:23:44.551Z,101506.41
2022-09-07T00:26:18.303Z,101513.56
2022-09-07T00:28:46.493Z,101508.47
2022-09-07T00:31:20.129Z,101515.09
2022-09-07T00:33:49.422Z,101512.81
2022-09-07T00:36:18.748Z,101516.13
2022-09-07T00:38:46.977Z,101520.75
2022-09-07T00:41:16.381Z,101510.19
2022-09-07T00:43:56.625Z,101520.41
2022-09-07T00:46:26.885Z,101515.72
2022-09-07T00:49:08.490Z,101521.94
2022-09-07T00:51:46.438Z,101514.22
2022-09-07T00:54:28.802Z,101519.31
2022-09-07T00:56:56.670Z,101507.19
2022-09-07T00:59:32.530Z,101512.00
2022-09-07T01:02:01.584Z,101516.25
2022-09-07T01:04:31.160Z,101507.19
2022-09-07T01:07:00.396Z,101508.94
2022-09-07T01:09:29.171Z,101506.16
2022-09-07T01:12:00.680Z,101515.88
2022-09-07T01:14:32.117Z,101513.22
2022-09-07T01:17:05.013Z,101503.69
2022-09-07T01:20:00.620Z,101503.81
2022-09-07T01:23:05.618Z,101504.09
2022-09-07T01:25:45.183Z,101501.25
2022-09-07T01:28:29.382Z,101501.28
2022-09-07T01:31:15.965Z,101501.09
2022-09-07T01:33:47.219Z,101505.28
2022-09-07T01:36:42.435Z,101506.22
2022-09-07T01:39:10.204Z,101499.31
2022-09-07T01:41:54.916Z,101507.66
2022-09-07T01:44:36.019Z,101505.00
2022-09-07T01:47:21.718Z,101499.56
2022-09-07T01:50:12.212Z,101507.25
2022-09-07T01:52:54.262Z,101509.38
2022-09-07T01:55:34.087Z,101508.50
2022-09-07T01:58:15.081Z,101499.03
2022-09-07T02:00:49.413Z,101508.75
2022-09-07T02:03:21.950Z,101507.13
2022-09-07T02:06:11.873Z,101506.97
2022-09-07T02:08:49.504Z,101498.31
2022-09-07T02:11:21.809Z,101493.91
2022-09-07T02:13:49.504Z,101502.69
2022-09-07T02:16:24.136Z,101499.19
2022-09-07T02:18:57.128Z,101503.53
2022-09-07T02:21:39.978Z,101495.94
2022-09-07T02:24:15.562Z,101498.19
2022-09-07T02:26:48.188Z,101496.28
2022-09-07T02:29:16.077Z,101492.78
2022-09-07T02:31:43.822Z,101491.44
2022-09-07T02:34:11.592Z,101494.06
2022-09-07T02:36:46.109Z,101497.72
2022-09-07T02:39:14.004Z,101495.00
2022-09-07T02:41:43.717Z,101501.16
2022-09-07T02:44:20.232Z,101497.50
2022-09-07T02:47:06.123Z,101499.03
2022-09-07T02:49:44.524Z,101501.16
2022-09-07T02:52:41.730Z,101496.97
2022-09-07T02:55:21.261Z,101495.13
2022-09-07T02:57:54.193Z,101489.81
2022-09-07T03:00:28.550Z,101498.31
2022-09-07T03:03:14.762Z,101501.66
2022-09-07T03:05:49.896Z,101507.88
2022-09-07T03:08:34.560Z,101500.06
2022-09-07T03:11:04.937Z,101508.50
2022-09-07T03:13:33.126Z,101502.28
2022-09-07T03:16:00.911Z,101503.13
2022-09-07T03:18:29.197Z,101510.38
2022-09-07T03:20:57.242Z,101510.59
2022-09-07T03:23:25.084Z,101519.38
2022-09-07T03:25:52.887Z,101516.66
2022-09-07T03:28:20.515Z,101517.00
2022-09-07T03:30:48.596Z,101525.03
2022-09-07T03:33:17.041Z,101520.66
2022-09-07T03:35:46.587Z,101525.09
2022-09-07T03:38:14.364Z,101535.53
2022-09-07T03:40:41.936Z,101523.25
2022-09-07T03:43:09.712Z,101533.09
2022-09-07T03:45:38.105Z,101534.66
2022-09-07T03:48:05.885Z,101540.78
2022-09-07T03:50:33.528Z,101534.38
2022-09-07T03:53:01.306Z,101537.94
2022-09-07T03:55:29.085Z,101543.72
2022-09-07T03:57:57.157Z,101543.53
2022-09-07T04:00:25.233Z,101539.59
2022-09-07T04:02:52.960Z,101537.97
2022-09-07T04:05:20.619Z,101544.63
2022-09-07T04:07:48.829Z,101543.69
2022-09-07T04:10:16.546Z,101546.25
2022-09-07T04:12:45.417Z,101551.69
2022-09-07T04:15:13.876Z,101553.50
2022-09-07T04:17:41.497Z,101556.00
2022-09-07T04:20:10.051Z,101555.88
2022-09-07T04:22:37.827Z,101553.91
2022-09-07T04:25:05.769Z,101557.13
2022-09-07T04:27:35.065Z,101558.94
2022-09-07T04:30:02.864Z,101559.09
2022-09-07T04:32:30.544Z,101560.56
2022-09-07T04:34:58.197Z,101560.31
2022-09-07T04:37:26.240Z,101555.88
2022-09-07T04:39:54.044Z,101558.34
2022-09-07T04:42:22.000Z,101562.94
2022-09-07T04:44:50.429Z,101571.59
2022-09-07T04:47:18.091Z,101563.34
2022-09-07T04:49:45.878Z,101564.34
2022-09-07T04:52:13.520Z,101573.13
2022-09-07T04:54:42.721Z,101575.00
2022-09-07T04:57:11.712Z,101579.34
2022-09-07T04:59:39.327Z,101571.41
2022-09-07T05:02:07.151Z,101574.53
2022-09-07T05:04:36.012Z,101579.38
2022-09-07T05:07:04.060Z,101573.78
2022-09-07T05:09:31.879Z,101574.31
2022-09-07T05:12:00.972Z,101568.06
2022-09-07T05:14:28.884Z,101562.84
2022-09-07T05:16:57.228Z,101571.06
2022-09-07T05:19:24.950Z,101567.22
2022-09-07T05:21:52.616Z,101568.66
2022-09-07T05:24:20.309Z,101569.22
2022-09-07T05:26:48.246Z,101572.66
2022-09-07T05:32:03.509Z,101570.59
2022-09-07T05:34:32.389Z,101572.25
2022-09-07T05:37:01.657Z,101571.91
2022-09-07T05:39:29.737Z,101574.63
2022-09-07T05:41:57.459Z,101567.34
2022-09-07T05:47:14.479Z,101577.78
2022-09-07T05:49:42.314Z,101575.81
2022-09-07T05:52:10.460Z,101573.94
2022-09-07T05:54:39.348Z,101579.25
2022-09-07T05:57:07.513Z,101581.03
2022-09-07T05:59:35.702Z,101582.47
2022-09-07T06:02:04.644Z,101584.81
2022-09-07T06:04:32.767Z,101587.34
2022-09-07T06:12:37.217Z,101587.91
2022-09-07T06:15:06.027Z,101586.56
2022-09-07T06:17:34.475Z,101576.53
2022-09-07T06:20:02.934Z,101588.63
2022-09-07T06:22:31.405Z,101583.06
2022-09-07T06:24:59.424Z,101590.84
2022-09-07T06:27:28.117Z,101593.47
2022-09-07T06:29:56.532Z,101597.66
2022-09-07T06:35:14.952Z,101599.75
2022-09-07T06:37:54.957Z,101601.47
2022-09-07T06:42:00.067Z,101602.81
2022-09-07T06:50:27.960Z,101606.97
2022-09-07T06:55:44.959Z,101613.88
2022-09-07T06:58:12.877Z,101609.88
2022-09-07T07:00:40.798Z,101605.97
2022-09-07T07:03:08.913Z,101614.31
2022-09-07T07:05:36.972Z,101611.28
2022-09-07T07:08:05.123Z,101605.56
2022-09-07T07:10:38.114Z,101607.97
2022-09-07T07:13:06.975Z,101611.16
2022-09-07T07:15:35.216Z,101610.84
2022-09-07T07:18:19.788Z,101613.19
2022-09-07T07:20:49.709Z,101613.97
2022-09-07T07:23:17.353Z,101611.41
2022-09-07T07:25:44.919Z,101609.28
2022-09-07T07:31:07.332Z,101606.84
2022-09-07T07:33:38.984Z,101612.38
2022-09-07T07:36:16.839Z,101611.59
2022-09-07T07:39:03.263Z,101612.28
2022-09-07T07:44:20.630Z,101609.59
2022-09-07T07:46:50.326Z,101615.59
2022-09-07T07:49:20.353Z,101606.53
2022-09-07T07:54:39.472Z,101600.03
2022-09-07T07:57:07.227Z,101601.41
2022-09-07T07:59:35.474Z,101598.56
2022-09-07T08:02:05.281Z,101595.34
2022-09-07T08:04:34.450Z,101596.13
2022-09-07T08:07:08.647Z,101585.66
2022-09-07T08:09:42.740Z,101587.19
2022-09-07T08:12:13.111Z,101596.09
2022-09-07T08:14:42.659Z,101589.97
2022-09-07T08:17:12.458Z,101592.13
2022-09-07T08:19:40.179Z,101586.25
2022-09-07T08:22:09.136Z,101579.97
2022-09-07T08:24:36.804Z,101579.28
2022-09-07T08:27:04.688Z,101587.56
2022-09-07T08:29:35.023Z,101577.63
2022-09-07T08:32:11.728Z,101578.31
2022-09-07T08:34:59.085Z,101574.72
2022-09-07T08:37:26.877Z,101577.50
2022-09-07T08:39:54.518Z,101578.84
2022-09-07T08:42:45.199Z,101575.88
2022-09-07T08:45:38.868Z,101571.72
2022-09-07T08:48:06.528Z,101569.22
2022-09-07T08:50:51.892Z,101573.16
2022-09-07T08:53:22.159Z,101569.03
2022-09-07T08:56:14.263Z,101562.88
2022-09-07T08:58:50.193Z,101562.66
2022-09-07T09:01:31.940Z,101564.84
2022-09-07T09:04:16.927Z,101562.34
2022-09-07T09:07:16.634Z,101562.59
2022-09-07T09:10:02.794Z,101548.44
2022-09-07T09:12:55.287Z,101552.91
2022-09-07T09:15:52.116Z,101542.97
2022-09-07T09:18:44.012Z,101537.03
2022-09-07T09:21:19.145Z,101540.22
2022-09-07T09:23:53.488Z,101537.66
2022-09-07T09:26:34.261Z,101528.66
2022-09-07T09:29:15.928Z,101518.81
2022-09-07T09:31:43.796Z,101523.59
2022-09-07T09:34:18.101Z,101530.41
2022-09-07T09:36:48.967Z,101525.00
2022-09-07T09:39:28.794Z,101525.97
2022-09-07T09:41:58.473Z,101525.53
2022-09-07T09:44:33.153Z,101525.81
2022-09-07T09:49:51.511Z,101524.00
2022-09-07T09:52:31.850Z,101524.00
2022-09-07T09:55:30.152Z,101519.31
2022-09-07T10:04:01.193Z,101511.69
2022-09-07T10:06:32.186Z,101501.19
2022-09-07T10:09:02.272Z,101513.22
2022-09-07T10:14:46.536Z,101499.34
2022-09-07T10:17:38.924Z,101504.13
2022-09-07T10:20:21.684Z,101501.78
2022-09-07T10:22:52.332Z,101500.75
2022-09-07T10:25:28.831Z,101500.84
2022-09-07T10:28:14.454Z,101495.75
2022-09-07T10:31:00.281Z,101499.16
2022-09-07T10:33:43.610Z,101489.19
2022-09-07T10:36:19.447Z,101496.03
2022-09-07T10:39:08.593Z,101494.53
2022-09-07T10:41:53.210Z,101488.06
2022-09-07T10:44:51.404Z,101487.09
2022-09-07T10:47:46.870Z,101479.59
2022-09-07T10:50:31.003Z,101486.34
2022-09-07T10:53:13.408Z,101480.47
2022-09-07T10:56:05.621Z,101481.75
2022-09-07T11:01:25.353Z,101486.84
2022-09-07T11:04:20.422Z,101483.09
2022-09-07T11:06:51.005Z,101480.00
2022-09-07T11:09:19.327Z,101483.16
2022-09-07T11:12:13.816Z,101484.13
2022-09-07T11:14:48.232Z,101479.19
2022-09-07T11:17:21.155Z,101473.50
2022-09-07T11:20:14.145Z,101466.22
2022-09-07T11:22:46.042Z,101480.78
2022-09-07T11:25:53.064Z,101483.97
2022-09-07T11:28:23.155Z,101462.56
2022-09-07T11:31:00.744Z,101463.63
2022-09-07T11:34:23.806Z,101465.34
2022-09-07T11:39:35.713Z,101464.22
2022-09-07T11:45:12.520Z,101465.31
2022-09-07T11:47:40.928Z,101451.03
2022-09-07T11:50:21.839Z,101449.63
2022-09-07T11:52:54.267Z,101454.44
2022-09-07T11:55:36.060Z,101461.00
2022-09-07T11:58:09.311Z,101455.66
2022-09-07T12:00:47.344Z,101463.34
2022-09-07T12:03:39.409Z,101463.25
2022-09-07T12:06:28.844Z,101450.63
2022-09-07T12:09:02.440Z,101444.41
2022-09-07T12:11:34.698Z,101446.41
2022-09-07T12:14:43.645Z,101446.63
2022-09-07T12:17:35.598Z,101446.94
2022-09-07T12:20:09.424Z,101442.63
2022-09-07T12:22:38.032Z,101440.00
2022-09-07T12:25:11.503Z,101444.00
2022-09-07T12:27:39.902Z,101446.09
2022-09-07T12:30:13.472Z,101446.22
2022-09-07T12:32:55.320Z,101444.41
2022-09-07T12:35:26.927Z,101439.72
2022-09-07T12:38:13.668Z,101438.50
2022-09-07T12:40:47.198Z,101434.66
2022-09-07T12:43:14.938Z,101435.63
2022-09-07T12:45:42.524Z,101425.56
2022-09-07T12:48:36.367Z,101436.69
2022-09-07T12:55:16.390Z,101437.47
2022-09-07T12:57:54.726Z,101436.59
2022-09-07T13:00:32.670Z,101426.84
2022-09-07T13:09:38.879Z,101430.28
2022-09-07T13:12:54.201Z,101431.72
2022-09-07T13:15:42.030Z,101429.38
2022-09-07T13:18:28.810Z,101421.56
2022-09-07T13:21:08.317Z,101414.88
2022-09-07T13:23:39.707Z,101421.31
2022-09-07T13:26:11.019Z,101417.78
2022-09-07T13:28:52.610Z,101416.41
2022-09-07T13:31:54.968Z,101409.88
2022-09-07T13:34:34.642Z,101414.28
2022-09-07T13:37:05.576Z,101411.09
2022-09-07T13:39:41.670Z,101403.50
2022-09-07T13:42:16.563Z,101403.91
2022-09-07T13:44:56.261Z,101407.84
2022-09-07T13:47:23.737Z,101411.59
2022-09-07T13:50:00.298Z,101407.94
2022-09-07T13:53:02.032Z,101405.81
2022-09-07T13:55:38.259Z,101412.44
2022-09-07T13:58:13.653Z,101406.84
2022-09-07T14:01:05.258Z,101402.16
2022-09-07T14:03:53.465Z,101404.72
2022-09-07T14:06:21.315Z,101408.03
2022-09-07T14:08:54.673Z,101401.16
2022-09-07T14:11:38.633Z,101409.06
2022-09-07T14:14:20.329Z,101403.91
2022-09-07T14:16:52.123Z,101402.50
2022-09-07T14:19:24.301Z,101396.16
2022-09-07T14:22:04.810Z,101402.78
2022-09-07T14:24:47.715Z,101394.16
2022-09-07T14:27:21.688Z,101397.78
2022-09-07T14:29:49.396Z,101398.94
2022-09-07T14:32:25.122Z,101400.88
2022-09-07T14:34:52.747Z,101397.81
2022-09-07T14:37:22.327Z,101385.63
2022-09-07T14:39:51.356Z,101393.88
2022-09-07T14:42:24.084Z,101398.25
2022-09-07T14:45:23.464Z,101399.84
2022-09-07T14:47:54.044Z,101389.28
2022-09-07T14:50:35.234Z,101390.91
2022-09-07T14:56:10.865Z,101388.78
2022-09-07T14:58:38.593Z,101385.69
2022-09-07T15:04:02.174Z,101385.25
2022-09-07T15:09:36.558Z,101396.25
2022-09-07T15:12:19.066Z,101390.19
2022-09-07T15:14:47.980Z,101395.41
2022-09-07T15:20:36.604Z,101386.22
2022-09-07T15:23:09.645Z,101385.03
2022-09-07T15:25:38.252Z,101392.19
2022-09-07T15:28:06.447Z,101388.66
2022-09-07T15:30:34.166Z,101383.06
2022-09-07T15:33:01.785Z,101385.31
2022-09-07T15:35:29.495Z,101378.03
2022-09-07T15:38:05.503Z,101380.28
2022-09-07T15:41:03.781Z,101375.69
2022-09-07T15:43:31.397Z,101370.63
2022-09-07T15:45:59.053Z,101371.50
2022-09-07T15:48:26.756Z,101369.22
2022-09-07T15:51:04.290Z,101375.66
2022-09-07T15:56:24.008Z,101363.34
2022-09-07T15:58:52.851Z,101366.22
2022-09-07T16:04:14.878Z,101368.97
2022-09-07T16:06:44.588Z,101365.97
2022-09-07T16:09:12.308Z,101369.78
2022-09-07T16:11:40.837Z,101376.91
2022-09-07T16:14:11.824Z,101372.66
2022-09-07T16:19:28.220Z,101388.50
2022-09-07T16:21:57.450Z,101387.53
2022-09-07T16:24:25.523Z,101391.25
2022-09-07T16:26:53.003Z,101395.91
2022-09-07T16:29:21.124Z,101396.13
2022-09-07T16:34:36.460Z,101403.56
2022-09-07T16:37:03.947Z,101409.22
2022-09-07T16:39:32.164Z,101413.09
2022-09-07T16:42:00.221Z,101414.97
2022-09-07T16:44:27.958Z,101420.69
2022-09-07T16:46:55.547Z,101419.19
2022-09-07T16:49:23.265Z,101417.66
2022-09-07T16:51:50.860Z,101416.31
2022-09-07T16:54:18.422Z,101413.88
2022-09-07T16:56:46.210Z,101418.88
2022-09-07T16:59:20.354Z,101418.25
2022-09-07T17:01:48.347Z,101430.81
2022-09-07T17:04:16.101Z,101427.56
2022-09-07T17:06:44.410Z,101425.28
2022-09-07T17:09:14.507Z,101426.03
2022-09-07T17:11:42.650Z,101420.91
2022-09-07T17:14:13.667Z,101423.66
2022-09-07T17:16:46.174Z,101423.75
2022-09-07T17:19:31.803Z,101429.16
2022-09-07T17:22:03.160Z,101425.84
2022-09-07T17:24:32.533Z,101427.84
2022-09-07T17:27:01.280Z,101437.81
2022-09-07T17:29:30.850Z,101437.16
2022-09-07T17:34:47.017Z,101435.31
2022-09-07T17:37:14.639Z,101430.47
2022-09-07T17:39:42.418Z,101438.81
2022-09-07T17:42:10.224Z,101440.03
2022-09-07T17:44:38.586Z,101443.03
2022-09-07T17:47:06.992Z,101444.78
2022-09-07T17:49:35.961Z,101448.31
2022-09-07T17:52:03.658Z,101441.53
2022-09-07T17:54:32.037Z,101444.53
2022-09-07T17:56:59.592Z,101447.31
2022-09-07T18:02:15.773Z,101442.66
2022-09-07T18:04:43.622Z,101447.28
2022-09-07T18:07:11.773Z,101439.59
2022-09-07T18:09:40.082Z,101444.22
2022-09-07T18:12:10.596Z,101437.53
2022-09-07T18:14:38.230Z,101442.09
2022-09-07T18:17:12.230Z,101439.59
2022-09-07T18:19:40.099Z,101441.06
2022-09-07T18:22:08.783Z,101441.41
2022-09-07T18:24:37.149Z,101439.09
2022-09-07T18:27:05.044Z,101440.22
2022-09-07T18:29:34.377Z,101446.41
2022-09-07T18:32:07.459Z,101432.66
2022-09-07T18:34:37.464Z,101445.19
2022-09-07T18:37:06.133Z,101444.66
2022-09-07T18:39:35.433Z,101436.88
2022-09-07T18:42:04.138Z,101439.78
2022-09-07T18:47:27.988Z,101442.94
2022-09-07T18:49:57.856Z,101439.25
2022-09-07T18:55:16.321Z,101432.75
2022-09-07T18:57:43.935Z,101429.28
2022-09-07T19:00:12.957Z,101431.25
2022-09-07T19:02:41.432Z,101436.66
2022-09-07T19:07:57.212Z,101427.56
2022-09-07T19:10:24.916Z,101436.13
2022-09-07T19:12:52.615Z,101428.03
2022-09-07T19:15:20.627Z,101431.91
2022-09-07T19:17:48.724Z,101427.22
2022-09-07T19:20:16.526Z,101428.56
2022-09-07T19:22:44.271Z,101433.22
2022-09-07T19:25:12.162Z,101431.03
2022-09-07T19:27:39.755Z,101437.97
2022-09-07T19:30:07.964Z,101434.59
2022-09-07T19:32:35.500Z,101435.78
2022-09-07T19:35:04.367Z,101438.59
2022-09-07T19:37:32.848Z,101427.59
2022-09-07T19:40:01.905Z,101427.53
2022-09-07T19:42:29.845Z,101432.91
2022-09-07T19:44:57.382Z,101427.38
2022-09-07T19:47:25.015Z,101429.84
2022-09-07T19:49:52.528Z,101431.31
2022-09-07T19:52:20.051Z,101425.16
2022-09-07T19:54:47.633Z,101421.28
2022-09-07T19:57:16.172Z,101431.88
2022-09-07T19:59:45.737Z,101425.03
2022-09-07T20:02:13.534Z,101427.97
2022-09-07T20:04:41.065Z,101422.22
2022-09-07T20:07:08.677Z,101420.66
2022-09-07T20:09:38.807Z,101424.69
2022-09-07T20:12:08.428Z,101421.81
2022-09-07T20:14:36.081Z,101419.09
2022-09-07T20:17:03.879Z,101424.25
2022-09-07T20:19:31.484Z,101423.00
2022-09-07T20:21:59.160Z,101424.56
2022-09-07T20:24:26.796Z,101418.53
2022-09-07T20:26:54.405Z,101412.47
2022-09-07T20:29:29.420Z,101426.09
2022-09-07T20:31:59.391Z,101424.44
2022-09-07T20:34:28.587Z,101418.44
2022-09-07T20:36:57.016Z,101418.69
2022-09-07T20:39:25.088Z,101413.94
2022-09-07T20:41:52.749Z,101421.28
2022-09-07T20:44:20.244Z,101422.38
2022-09-07T20:46:47.874Z,101419.63
2022-09-07T20:49:15.487Z,101418.47
2022-09-07T20:51:44.724Z,101412.22
2022-09-07T20:54:12.302Z,101415.69
2022-09-07T20:56:39.856Z,101411.28
2022-09-07T20:59:07.436Z,101411.75
2022-09-07T21:01:36.699Z,101413.63
2022-09-07T21:04:06.313Z,101406.94
2022-09-07T21:06:34.098Z,101411.38
2022-09-07T21:09:02.975Z,101412.19
2022-09-07T21:11:34.001Z,101406.56
2022-09-07T21:14:03.018Z,101410.13
2022-09-07T21:16:31.250Z,101408.47
2022-09-07T21:19:00.857Z,101408.47
2022-09-07T21:21:37.758Z,101398.50
2022-09-07T21:24:07.218Z,101401.88
2022-09-07T21:26:35.070Z,101401.63
2022-09-07T21:29:05.160Z,101402.25
2022-09-07T21:31:34.008Z,101407.00
2022-09-07T21:34:02.500Z,101395.47
2022-09-07T21:36:31.125Z,101399.28
2022-09-07T21:38:58.643Z,101400.06
2022-09-07T21:41:26.453Z,101398.50
2022-09-07T21:44:00.238Z,101399.44
2022-09-07T21:46:32.079Z,101403.63
2022-09-07T21:49:00.407Z,101402.22
2022-09-07T21:51:28.827Z,101398.50
2022-09-07T21:54:00.471Z,101394.59
2022-09-07T21:56:29.688Z,101392.34
2022-09-07T21:59:02.016Z,101401.00
2022-09-07T22:01:31.604Z,101398.03
2022-09-07T22:04:02.379Z,101395.16
2022-09-07T22:06:32.448Z,101393.53
2022-09-07T22:09:00.960Z,101387.28
2022-09-07T22:11:29.802Z,101392.25
2022-09-07T22:14:00.493Z,101383.28
2022-09-07T22:16:28.471Z,101381.63
2022-09-07T22:18:56.298Z,101383.84
2022-09-07T22:21:25.877Z,101374.56
2022-09-07T22:23:57.022Z,101377.59
2022-09-07T22:26:26.710Z,101377.38
2022-09-07T22:28:55.284Z,101365.59
2022-09-07T22:31:28.865Z,101371.50
2022-09-07T22:33:57.713Z,101367.84
2022-09-07T22:36:28.226Z,101364.66
2022-09-07T22:39:01.278Z,101367.25
2022-09-07T22:41:31.697Z,101362.75
2022-09-07T22:43:59.866Z,101348.75
2022-09-07T22:46:29.994Z,101350.91
2022-09-07T22:48:58.644Z,101351.25
2022-09-07T22:51:27.224Z,101356.00
2022-09-07T22:53:55.559Z,101351.47
2022-09-07T22:56:29.349Z,101349.53
2022-09-07T22:59:02.231Z,101350.38
2022-09-07T23:01:31.754Z,101348.84
2022-09-07T23:04:00.189Z,101344.97
2022-09-07T23:06:27.847Z,101348.91
2022-09-07T23:08:57.461Z,101348.34
2022-09-07T23:11:25.740Z,101344.28
2022-09-07T23:13:56.107Z,101345.91
2022-09-07T23:16:24.066Z,101340.63
2022-09-07T23:18:51.944Z,101338.41
2022-09-07T23:21:19.808Z,101334.00
2022-09-07T23:23:52.317Z,101338.84
2022-09-07T23:26:22.078Z,101332.34
2022-09-07T23:28:55.053Z,101335.13
2022-09-07T23:31:24.075Z,101336.44
2022-09-07T23:33:51.891Z,101329.91
2022-09-07T23:36:19.826Z,101336.72
2022-09-07T23:38:48.099Z,101338.34
2022-09-07T23:41:19.927Z,101334.50
2022-09-07T23:43:48.483Z,101331.84
2022-09-07T23:46:16.703Z,101335.22
2022-09-07T23:48:45.508Z,101332.81
2022-09-07T23:51:14.443Z,101328.97
2022-09-07T23:53:42.586Z,101333.63
2022-09-07T23:56:10.228Z,101329.94
2022-09-07T23:58:39.687Z,101327.38
